Terminal Aerodrome Forecast
Issued by NWS

Home | Current Version | Previous Version | Text Only | Print | Product List | Glossary Off
Versions: 1 2 3 4 5 6 7 8 9 10 11 12 13 14 15 16 17 18 19 20 21 22 23 24 25 26 27 28 29 30 31 32 33 34 35 36 37 38 39 40 41 42 43
000 FTUS41 KBOX 220834 AAB TAFFMH TAF AMD KFMH 220834Z 2209/2306 00000KT P6SM SKC TEMPO 2209/2212 5SM BR SCT003 FM221300 25004KT P6SM BKN250 FM221500 23008KT P6SM FEW250 FM222100 22012KT P6SM FEW250=

USA.gov is the U.S. government's official web portal to all federal, state and local government web resources and services.